createdAt,value
2019-03-09T00:02:18.329Z,91.30
2019-03-09T00:04:48.664Z,91.30
2019-03-09T00:07:19.019Z,91.20
2019-03-09T00:09:49.379Z,91.20
2019-03-09T00:12:19.723Z,91.30
2019-03-09T00:14:50.059Z,91.50
2019-03-09T00:17:20.384Z,91.40
2019-03-09T00:19:50.742Z,91.40
2019-03-09T00:22:21.073Z,91.50
2019-03-09T00:24:53.045Z,91.70
2019-03-09T00:27:29.886Z,91.70
2019-03-09T00:29:58.684Z,91.70
2019-03-09T00:32:29.044Z,91.80
2019-03-09T00:34:59.354Z,92.00
2019-03-09T00:37:29.694Z,92.10
2019-03-09T00:40:00.029Z,92.10
2019-03-09T00:42:30.370Z,92.20
2019-03-09T00:45:00.782Z,92.10
2019-03-09T00:47:31.116Z,92.20
2019-03-09T00:50:01.468Z,92.20
2019-03-09T00:52:32.875Z,92.20
2019-03-09T00:55:03.476Z,92.30
2019-03-09T00:57:33.810Z,92.40
2019-03-09T01:00:06.161Z,92.80
2019-03-09T01:02:36.592Z,92.40
2019-03-09T01:05:09.135Z,92.50
2019-03-09T01:07:39.476Z,92.60
2019-03-09T01:10:13.892Z,92.70
2019-03-09T01:12:44.230Z,92.80
2019-03-09T01:15:15.862Z,93.00
2019-03-09T01:17:46.206Z,93.10
2019-03-09T01:20:17.182Z,93.20
2019-03-09T01:22:47.677Z,93.20
2019-03-09T01:25:18.009Z,93.20
2019-03-09T01:27:48.346Z,93.20
2019-03-09T01:30:19.023Z,93.30
2019-03-09T01:32:49.376Z,93.30
2019-03-09T01:35:19.735Z,93.30
2019-03-09T01:37:50.071Z,93.40
2019-03-09T01:40:20.404Z,93.40
2019-03-09T01:42:50.762Z,93.40
2019-03-09T01:45:21.097Z,93.50
2019-03-09T01:47:51.435Z,93.50
2019-03-09T01:50:21.772Z,93.50
2019-03-09T01:52:52.100Z,93.60
2019-03-09T01:55:22.428Z,93.60
2019-03-09T01:57:52.825Z,93.70
2019-03-09T02:00:23.171Z,93.60
2019-03-09T02:02:53.502Z,93.60
2019-03-09T02:05:23.832Z,93.70
2019-03-09T02:07:54.166Z,93.70
2019-03-09T02:10:24.501Z,93.70
2019-03-09T02:12:54.839Z,94.00
2019-03-09T02:15:25.174Z,94.00
2019-03-09T02:17:55.529Z,94.00
2019-03-09T02:20:25.851Z,94.00
2019-03-09T02:22:56.180Z,94.00
2019-03-09T02:25:26.515Z,94.10
2019-03-09T02:27:56.859Z,94.20
2019-03-09T02:30:27.197Z,94.20
2019-03-09T02:32:57.534Z,94.30
2019-03-09T02:35:27.990Z,94.20
2019-03-09T02:38:00.941Z,94.20
2019-03-09T02:40:31.272Z,94.20
2019-03-09T02:43:01.603Z,94.20
2019-03-09T02:45:32.808Z,94.20
2019-03-09T02:48:03.153Z,94.20
2019-03-09T02:50:33.484Z,94.30
2019-03-09T02:53:03.822Z,94.30
2019-03-09T02:55:34.156Z,94.30
2019-03-09T02:58:04.477Z,94.30
2019-03-09T03:00:36.779Z,94.40
2019-03-09T03:03:07.971Z,94.40
2019-03-09T03:05:38.309Z,94.30
2019-03-09T03:08:08.638Z,94.20
2019-03-09T03:10:39.000Z,94.20
2019-03-09T03:13:09.339Z,94.00
2019-03-09T03:15:39.705Z,94.00
2019-03-09T03:18:10.061Z,94.00
2019-03-09T03:20:40.401Z,94.00
2019-03-09T03:23:10.745Z,93.90
2019-03-09T03:25:41.089Z,93.70
2019-03-09T03:28:11.440Z,93.70
2019-03-09T03:30:41.807Z,93.60
2019-03-09T03:33:13.113Z,93.60
2019-03-09T03:35:43.450Z,93.60
2019-03-09T03:38:13.797Z,93.60
2019-03-09T03:40:44.137Z,93.50
2019-03-09T03:43:16.160Z,93.60
2019-03-09T03:45:46.610Z,93.60
2019-03-09T03:48:16.966Z,93.60
2019-03-09T03:50:48.682Z,93.60
2019-03-09T03:53:19.013Z,93.60
2019-03-09T03:55:49.431Z,93.60
2019-03-09T03:58:20.176Z,93.50
2019-03-09T04:00:50.592Z,93.50
2019-03-09T04:03:21.002Z,93.20
2019-03-09T04:05:51.344Z,93.30
2019-03-09T04:08:21.762Z,93.30
2019-03-09T04:10:52.341Z,93.20
2019-03-09T04:13:22.649Z,92.90
2019-03-09T04:15:53.021Z,92.70
2019-03-09T04:18:23.359Z,92.40
2019-03-09T04:20:53.709Z,92.40
2019-03-09T04:23:24.053Z,92.30
2019-03-09T04:25:54.381Z,92.10
2019-03-09T04:28:24.784Z,92.00
2019-03-09T04:30:55.112Z,92.00
2019-03-09T04:33:25.449Z,92.00
2019-03-09T04:35:55.786Z,91.90
2019-03-09T04:38:26.116Z,91.80
2019-03-09T04:40:56.459Z,91.70
2019-03-09T04:43:26.804Z,91.60
2019-03-09T04:45:57.147Z,91.30
2019-03-09T04:48:27.479Z,91.30
2019-03-09T04:50:57.816Z,91.10
2019-03-09T04:53:28.150Z,91.00
2019-03-09T04:55:58.494Z,90.80
2019-03-09T04:58:28.833Z,90.50
2019-03-09T05:00:59.175Z,90.10
2019-03-09T05:03:29.523Z,89.40
2019-03-09T05:05:59.858Z,89.10
2019-03-09T05:08:40.693Z,89.30
2019-03-09T05:11:12.237Z,88.10
2019-03-09T05:13:43.314Z,88.40
2019-03-09T05:16:13.628Z,88.20
2019-03-09T05:18:43.973Z,88.00
2019-03-09T05:21:14.301Z,87.60
2019-03-09T05:23:44.652Z,86.80
2019-03-09T05:26:14.993Z,86.80
2019-03-09T05:28:45.325Z,86.60
2019-03-09T05:31:15.667Z,86.30
2019-03-09T05:33:46.013Z,86.70
2019-03-09T05:36:16.381Z,86.40
2019-03-09T05:38:46.712Z,86.20
2019-03-09T05:41:17.040Z,85.80
2019-03-09T05:43:47.376Z,85.90
2019-03-09T05:46:17.714Z,85.00
2019-03-09T05:48:48.044Z,85.10
2019-03-09T05:51:18.388Z,85.10
2019-03-09T05:53:48.739Z,85.50
2019-03-09T05:56:19.080Z,85.60
2019-03-09T05:58:49.417Z,85.50
2019-03-09T06:01:19.762Z,85.70
2019-03-09T06:03:50.122Z,85.40
2019-03-09T06:06:20.453Z,85.70
2019-03-09T06:08:50.787Z,85.70
2019-03-09T06:11:21.120Z,86.00
2019-03-09T06:13:52.432Z,86.20
2019-03-09T06:16:22.862Z,86.10
2019-03-09T06:18:53.196Z,86.30
2019-03-09T06:21:23.540Z,86.50
2019-03-09T06:23:53.876Z,86.90
2019-03-09T06:26:24.227Z,87.00
2019-03-09T06:28:54.567Z,87.10
2019-03-09T06:31:25.885Z,87.20
2019-03-09T06:33:57.182Z,87.10
2019-03-09T06:36:49.424Z,87.20
2019-03-09T06:39:19.761Z,87.20
2019-03-09T06:42:00.463Z,87.40
2019-03-09T06:44:30.766Z,87.30
2019-03-09T06:47:01.184Z,86.90
2019-03-09T06:49:31.520Z,86.70
2019-03-09T06:52:01.931Z,86.90
2019-03-09T06:54:32.289Z,86.70
2019-03-09T06:57:02.734Z,86.50
2019-03-09T06:59:33.068Z,86.60
2019-03-09T07:02:03.486Z,86.60
2019-03-09T07:04:33.831Z,86.70
2019-03-09T07:07:04.339Z,86.90
2019-03-09T07:09:34.677Z,87.00
2019-03-09T07:12:05.090Z,87.10
2019-03-09T07:14:58.119Z,87.20
2019-03-09T07:17:28.445Z,87.40
2019-03-09T07:19:58.783Z,87.70
2019-03-09T07:22:29.122Z,87.70
2019-03-09T07:24:59.472Z,87.80
2019-03-09T07:27:29.810Z,87.70
2019-03-09T07:30:00.329Z,87.60
2019-03-09T07:32:30.756Z,87.50
2019-03-09T07:35:01.077Z,87.40
2019-03-09T07:37:31.971Z,87.30
2019-03-09T07:40:02.305Z,87.00
2019-03-09T07:42:34.066Z,87.00
2019-03-09T07:45:10.563Z,86.40
2019-03-09T07:47:40.919Z,86.40
2019-03-09T07:50:13.969Z,86.10
2019-03-09T07:52:44.368Z,85.80
2019-03-09T07:55:20.838Z,85.80
2019-03-09T07:57:52.064Z,85.10
2019-03-09T08:00:22.941Z,85.10
2019-03-09T08:02:53.272Z,84.70
2019-03-09T08:05:23.609Z,84.50
2019-03-09T08:07:53.945Z,84.40
2019-03-09T08:10:29.202Z,84.30
2019-03-09T08:12:59.567Z,84.20
2019-03-09T08:15:29.970Z,84.20
2019-03-09T08:18:01.385Z,84.00
2019-03-09T08:20:31.738Z,83.60
2019-03-09T08:23:02.069Z,83.50
2019-03-09T08:25:32.407Z,82.30
2019-03-09T08:28:02.756Z,82.90
2019-03-09T08:30:34.709Z,82.30
2019-03-09T08:33:05.132Z,81.60
2019-03-09T08:35:35.462Z,81.40
2019-03-09T08:38:05.802Z,80.80
2019-03-09T08:40:36.132Z,80.80
2019-03-09T08:43:06.460Z,80.60
2019-03-09T08:45:36.821Z,80.40
2019-03-09T08:48:07.174Z,80.10
2019-03-09T08:50:37.490Z,79.80
2019-03-09T08:53:07.877Z,79.40
2019-03-09T08:55:38.220Z,79.40
2019-03-09T08:58:08.543Z,79.90
2019-03-09T09:00:38.978Z,79.80
2019-03-09T09:03:09.321Z,79.70
2019-03-09T09:05:43.700Z,79.40
2019-03-09T09:08:17.047Z,79.40
2019-03-09T09:10:47.402Z,79.30
2019-03-09T09:13:17.735Z,76.90
2019-03-09T09:15:48.216Z,77.10
2019-03-09T09:18:18.614Z,76.70
2019-03-09T09:20:48.974Z,76.30
2019-03-09T09:23:19.317Z,76.50
2019-03-09T09:25:49.710Z,76.30
2019-03-09T09:28:20.028Z,76.50
2019-03-09T09:30:50.378Z,75.80
2019-03-09T09:33:20.722Z,76.60
2019-03-09T09:35:51.060Z,76.70
2019-03-09T09:38:21.417Z,77.40
2019-03-09T09:40:51.860Z,77.10
2019-03-09T09:43:23.174Z,76.70
2019-03-09T09:45:53.518Z,75.90
2019-03-09T09:48:23.853Z,75.60
2019-03-09T09:50:54.195Z,74.80
2019-03-09T09:53:24.536Z,75.00
2019-03-09T09:55:54.899Z,74.30
2019-03-09T09:58:25.236Z,73.30
2019-03-09T10:00:55.581Z,72.90
2019-03-09T10:03:25.925Z,71.20
2019-03-09T10:05:56.264Z,72.70
2019-03-09T10:08:27.578Z,71.80
2019-03-09T10:10:57.927Z,72.30
2019-03-09T10:13:28.264Z,72.30
2019-03-09T10:15:58.607Z,72.30
2019-03-09T10:18:28.944Z,72.70
2019-03-09T10:20:59.288Z,72.60
2019-03-09T10:23:29.630Z,72.80
2019-03-09T10:26:00.048Z,73.20
2019-03-09T10:28:30.380Z,73.80
2019-03-09T10:31:00.729Z,73.50
2019-03-09T10:33:31.076Z,74.10
2019-03-09T10:36:01.423Z,73.70
2019-03-09T10:38:31.767Z,73.70
2019-03-09T10:41:02.119Z,73.40
2019-03-09T10:43:35.418Z,73.20
2019-03-09T10:46:05.763Z,72.60
2019-03-09T10:48:36.120Z,72.50
2019-03-09T10:51:06.451Z,71.80
2019-03-09T10:53:36.873Z,70.30
2019-03-09T10:56:09.188Z,68.80
2019-03-09T10:58:39.530Z,70.00
2019-03-09T11:01:10.440Z,66.50
2019-03-09T11:03:40.785Z,66.50
2019-03-09T11:06:11.125Z,65.40
2019-03-09T11:08:41.457Z,63.80
2019-03-09T11:11:12.775Z,64.40
2019-03-09T11:13:51.374Z,62.70
2019-03-09T11:16:15.261Z,63.00
2019-03-09T11:18:45.599Z,62.70
2019-03-09T11:21:16.015Z,62.10
2019-03-09T11:23:46.438Z,62.40
2019-03-09T11:26:16.776Z,63.00
2019-03-09T11:28:47.118Z,62.80
2019-03-09T11:31:17.456Z,63.20
2019-03-09T11:33:47.794Z,64.50
2019-03-09T11:36:18.153Z,64.20
2019-03-09T11:38:48.493Z,65.50
2019-03-09T11:41:19.544Z,65.90
2019-03-09T11:43:49.909Z,66.30
2019-03-09T11:46:20.260Z,66.30
2019-03-09T11:48:50.590Z,66.20
2019-03-09T11:51:20.949Z,67.20
2019-03-09T11:53:53.720Z,67.50
2019-03-09T11:56:23.983Z,67.40
2019-03-09T11:58:54.318Z,67.60
2019-03-09T12:01:24.670Z,67.60
2019-03-09T12:03:55.010Z,67.00
2019-03-09T12:06:25.363Z,67.00
2019-03-09T12:08:55.713Z,67.50
2019-03-09T12:11:26.054Z,67.90
2019-03-09T12:13:56.421Z,68.70
2019-03-09T12:16:26.763Z,68.20
2019-03-09T12:18:57.117Z,68.50
2019-03-09T12:21:27.461Z,68.40
2019-03-09T12:23:57.807Z,68.60
2019-03-09T12:26:28.155Z,68.90
2019-03-09T12:28:58.510Z,69.40
2019-03-09T12:31:28.848Z,69.70
2019-03-09T12:33:59.203Z,70.20
2019-03-09T12:36:29.542Z,70.20
2019-03-09T12:38:59.956Z,69.60
2019-03-09T12:41:30.322Z,70.30
2019-03-09T12:44:00.673Z,69.30
2019-03-09T12:46:31.989Z,69.60
2019-03-09T12:49:02.411Z,69.70
2019-03-09T12:51:32.763Z,68.40
2019-03-09T12:54:03.113Z,68.10
2019-03-09T12:56:33.466Z,67.10
2019-03-09T13:02:14.989Z,66.20
2019-03-09T13:04:45.994Z,66.40
2019-03-09T13:07:16.841Z,66.90
2019-03-09T13:09:52.568Z,66.90
2019-03-09T13:12:23.285Z,66.20
2019-03-09T13:15:04.644Z,66.00
2019-03-09T13:17:34.577Z,66.00
2019-03-09T13:20:07.889Z,65.90
2019-03-09T13:22:40.503Z,65.80
2019-03-09T13:25:11.805Z,66.20
2019-03-09T13:27:42.807Z,66.40
2019-03-09T13:30:19.728Z,66.50
2019-03-09T13:32:50.845Z,66.80
2019-03-09T13:35:23.062Z,68.00
2019-03-09T13:37:53.762Z,69.30
2019-03-09T13:40:24.316Z,72.30
2019-03-09T13:42:58.977Z,75.20
2019-03-09T13:45:29.604Z,78.00
2019-03-09T13:48:02.881Z,78.80
2019-03-09T13:50:34.963Z,79.40
2019-03-09T13:53:07.150Z,78.60
2019-03-09T13:55:37.537Z,78.40
2019-03-09T13:58:10.839Z,78.10
2019-03-09T14:00:45.921Z,77.90
2019-03-09T14:03:16.997Z,77.70
2019-03-09T14:05:47.652Z,74.30
2019-03-09T14:08:18.420Z,74.00
2019-03-09T14:10:48.966Z,75.30
2019-03-09T14:13:22.714Z,78.50
2019-03-09T14:15:57.327Z,80.90
2019-03-09T14:18:32.419Z,82.00
2019-03-09T14:21:04.390Z,82.90
2019-03-09T14:23:37.067Z,82.20
2019-03-09T14:26:12.226Z,83.10
2019-03-09T14:28:42.971Z,82.30
2019-03-09T14:31:14.113Z,81.30
2019-03-09T14:33:44.920Z,81.20
2019-03-09T14:36:15.718Z,81.80
2019-03-09T14:38:46.432Z,82.40
2019-03-09T14:41:20.244Z,84.40
2019-03-09T14:43:56.295Z,86.40
2019-03-09T14:46:26.751Z,87.80
2019-03-09T14:48:57.482Z,87.40
2019-03-09T14:51:29.651Z,87.80
2019-03-09T14:54:00.654Z,86.10
2019-03-09T14:59:25.941Z,85.30
2019-03-09T15:01:58.115Z,84.20
2019-03-09T15:04:33.361Z,82.60
2019-03-09T15:07:09.879Z,82.60
2019-03-09T15:09:45.316Z,81.90
2019-03-09T15:12:15.911Z,80.80
2019-03-09T15:14:46.482Z,80.40
2019-03-09T15:17:17.233Z,79.90
2019-03-09T15:19:51.022Z,78.90
2019-03-09T15:22:22.089Z,78.00
2019-03-09T15:24:52.700Z,78.40
2019-03-09T15:27:27.032Z,77.60
2019-03-09T15:29:58.108Z,77.20
2019-03-09T15:32:40.584Z,75.40
2019-03-09T15:35:19.811Z,74.80
2019-03-09T15:37:56.479Z,75.10
2019-03-09T15:40:28.855Z,74.70
2019-03-09T15:43:09.834Z,75.00
2019-03-09T15:45:43.365Z,73.20
2019-03-09T15:48:15.101Z,73.70
2019-03-09T15:50:45.752Z,73.20
2019-03-09T15:53:17.892Z,73.50
2019-03-09T15:55:54.496Z,73.10
2019-03-09T15:58:28.095Z,72.80
2019-03-09T16:01:01.328Z,72.90
2019-03-09T16:03:32.962Z,71.90
2019-03-09T16:06:05.281Z,71.90
2019-03-09T16:08:38.425Z,70.90
2019-03-09T16:11:12.213Z,69.00
2019-03-09T16:13:49.009Z,70.30
2019-03-09T16:16:21.067Z,70.20
2019-03-09T16:18:57.310Z,70.10
2019-03-09T16:21:28.161Z,70.30
2019-03-09T16:23:58.785Z,69.30
2019-03-09T16:26:29.331Z,69.20
2019-03-09T16:28:59.606Z,69.60
2019-03-09T16:31:29.945Z,69.50
2019-03-09T16:34:00.282Z,69.60
2019-03-09T16:36:30.706Z,70.00
2019-03-09T16:39:01.044Z,69.70
2019-03-09T16:41:33.284Z,70.00
2019-03-09T16:44:03.627Z,70.20
2019-03-09T16:46:34.039Z,70.00
2019-03-09T16:49:04.384Z,70.50
2019-03-09T16:51:34.738Z,71.10
2019-03-09T16:54:05.073Z,71.20
2019-03-09T16:56:35.426Z,71.60
2019-03-09T16:59:05.764Z,71.80
2019-03-09T17:01:36.107Z,72.10
2019-03-09T17:04:06.450Z,72.40
2019-03-09T17:06:36.862Z,72.40
2019-03-09T17:09:07.431Z,72.30
2019-03-09T17:11:37.876Z,72.40
2019-03-09T17:14:08.247Z,72.80
2019-03-09T17:16:38.576Z,73.20
2019-03-09T17:19:08.916Z,73.50
2019-03-09T17:21:39.275Z,73.30
2019-03-09T17:24:11.233Z,73.80
2019-03-09T17:26:41.590Z,74.10
2019-03-09T17:29:11.938Z,74.30
2019-03-09T17:31:42.288Z,74.30
2019-03-09T17:34:12.670Z,74.80
2019-03-09T17:36:43.108Z,74.60
2019-03-09T17:39:13.557Z,74.70
2019-03-09T17:41:43.907Z,74.90
2019-03-09T17:44:14.280Z,75.10
2019-03-09T17:46:44.615Z,75.40
2019-03-09T17:49:14.995Z,75.30
2019-03-09T17:51:45.386Z,75.10
2019-03-09T17:54:15.744Z,75.20
2019-03-09T17:56:46.099Z,75.00
2019-03-09T17:59:16.466Z,75.10
2019-03-09T18:01:46.810Z,75.20
2019-03-09T18:04:17.169Z,75.40
2019-03-09T18:06:47.549Z,75.60
2019-03-09T18:09:17.848Z,76.00
2019-03-09T18:11:48.238Z,76.20
2019-03-09T18:14:18.608Z,76.70
2019-03-09T18:16:52.672Z,76.60
2019-03-09T18:19:21.011Z,76.70
2019-03-09T18:21:59.096Z,76.80
2019-03-09T18:24:29.450Z,77.40
2019-03-09T18:27:00.044Z,77.70
2019-03-09T18:29:30.388Z,77.90
2019-03-09T18:32:00.727Z,77.70
2019-03-09T18:34:32.049Z,77.90
2019-03-09T18:37:02.402Z,77.90
2019-03-09T18:39:32.794Z,77.80
2019-03-09T18:42:03.132Z,78.10
2019-03-09T18:44:33.482Z,78.00
2019-03-09T18:47:03.888Z,78.10
2019-03-09T18:49:34.241Z,78.00
2019-03-09T18:52:04.611Z,78.10
2019-03-09T18:54:34.980Z,78.10
2019-03-09T18:57:05.350Z,78.00
2019-03-09T18:59:36.624Z,78.00
2019-03-09T19:02:07.009Z,78.10
2019-03-09T19:04:37.355Z,78.10
2019-03-09T19:07:07.699Z,78.30
2019-03-09T19:09:38.057Z,78.40
2019-03-09T19:12:08.410Z,78.50
2019-03-09T19:14:41.400Z,78.80
2019-03-09T19:17:11.780Z,79.00
2019-03-09T19:19:42.816Z,79.10
2019-03-09T19:22:13.157Z,79.00
2019-03-09T19:24:43.538Z,78.90
2019-03-09T19:27:13.974Z,79.00
2019-03-09T19:29:44.349Z,79.10
2019-03-09T19:32:14.778Z,79.10
2019-03-09T19:34:45.080Z,79.30
2019-03-09T19:37:15.476Z,79.20
2019-03-09T19:39:45.869Z,79.80
2019-03-09T19:42:16.300Z,78.80
2019-03-09T19:44:46.680Z,78.70
2019-03-09T19:47:16.972Z,78.70
2019-03-09T19:49:47.344Z,78.20
2019-03-09T19:52:17.722Z,77.90
2019-03-09T19:54:48.069Z,77.60
2019-03-09T19:57:18.431Z,77.10
2019-03-09T19:59:48.801Z,76.80
2019-03-09T20:02:19.145Z,75.80
2019-03-09T20:04:49.582Z,75.40
2019-03-09T20:07:19.916Z,75.20
2019-03-09T20:09:50.281Z,75.20
2019-03-09T20:12:20.895Z,75.00
2019-03-09T20:14:51.343Z,75.10
2019-03-09T20:17:21.691Z,74.90
2019-03-09T20:19:52.143Z,74.50
2019-03-09T20:22:22.633Z,74.70
2019-03-09T20:24:53.008Z,74.20
2019-03-09T20:27:23.907Z,74.10
2019-03-09T20:29:55.847Z,73.60
2019-03-09T20:32:26.242Z,73.00
2019-03-09T20:34:56.543Z,73.10
2019-03-09T20:37:27.886Z,72.70
2019-03-09T20:39:59.852Z,72.80
2019-03-09T20:42:30.259Z,72.50
2019-03-09T20:45:00.536Z,72.20
2019-03-09T20:47:31.012Z,71.80
2019-03-09T20:50:03.007Z,71.50
2019-03-09T20:52:35.943Z,71.50
2019-03-09T20:55:07.432Z,71.50
2019-03-09T20:57:37.785Z,70.80
2019-03-09T21:00:17.370Z,70.70
2019-03-09T21:02:47.722Z,70.50
2019-03-09T21:05:18.168Z,70.50
2019-03-09T21:07:48.585Z,70.40
2019-03-09T21:10:20.343Z,70.10
2019-03-09T21:13:11.585Z,69.90
2019-03-09T21:15:41.986Z,69.90
2019-03-09T21:18:12.407Z,69.70
2019-03-09T21:20:42.830Z,69.30
2019-03-09T21:23:13.183Z,69.30
2019-03-09T21:25:43.541Z,69.00
2019-03-09T21:28:13.902Z,69.40
2019-03-09T21:30:44.249Z,69.10
2019-03-09T21:33:14.591Z,69.50
2019-03-09T21:35:44.968Z,69.70
2019-03-09T21:38:15.299Z,69.70
2019-03-09T21:40:45.678Z,69.50
2019-03-09T21:43:16.017Z,69.60
2019-03-09T21:45:46.396Z,69.20
2019-03-09T21:48:16.749Z,69.40
2019-03-09T21:50:47.162Z,69.60
2019-03-09T21:53:17.449Z,69.40
2019-03-09T21:55:47.803Z,69.60
2019-03-09T21:58:18.134Z,69.60
2019-03-09T22:00:48.633Z,69.60
2019-03-09T22:03:18.909Z,69.70
2019-03-09T22:05:49.268Z,70.20
2019-03-09T22:08:19.679Z,70.40
2019-03-09T22:10:50.015Z,70.40
2019-03-09T22:13:20.352Z,70.50
2019-03-09T22:15:50.756Z,70.50
2019-03-09T22:18:21.094Z,70.90
2019-03-09T22:20:51.532Z,71.40
2019-03-09T22:23:21.862Z,71.80
2019-03-09T22:25:52.226Z,72.00
2019-03-09T22:28:22.578Z,72.20
2019-03-09T22:30:52.958Z,72.20
2019-03-09T22:33:23.286Z,72.00
2019-03-09T22:35:53.649Z,72.00
2019-03-09T22:38:24.973Z,72.00
2019-03-09T22:40:55.350Z,72.20
2019-03-09T22:43:25.695Z,72.20
2019-03-09T22:45:57.645Z,72.20
2019-03-09T22:48:27.987Z,72.40
2019-03-09T22:50:58.348Z,72.50
2019-03-09T22:53:28.701Z,72.40
2019-03-09T22:55:59.097Z,72.50
2019-03-09T22:58:29.442Z,72.70
2019-03-09T23:01:01.331Z,72.80
2019-03-09T23:03:32.294Z,72.90
2019-03-09T23:06:02.784Z,72.90
2019-03-09T23:08:40.504Z,72.90
2019-03-09T23:11:10.890Z,72.90
2019-03-09T23:13:41.245Z,73.10
2019-03-09T23:16:11.603Z,73.20
2019-03-09T23:18:41.952Z,73.00
2019-03-09T23:21:12.305Z,72.90
2019-03-09T23:23:42.642Z,72.80
2019-03-09T23:26:13.014Z,72.70
2019-03-09T23:28:47.886Z,72.60
2019-03-09T23:31:19.215Z,72.80
2019-03-09T23:33:49.554Z,72.80
2019-03-09T23:36:19.910Z,73.00
2019-03-09T23:38:50.305Z,72.90
2019-03-09T23:41:20.674Z,73.00
2019-03-09T23:43:51.081Z,72.90
2019-03-09T23:46:21.509Z,73.80
2019-03-09T23:48:53.453Z,73.00
2019-03-09T23:51:23.798Z,73.00
2019-03-09T23:53:54.147Z,73.80
2019-03-09T23:56:24.508Z,73.10
2019-03-09T23:58:54.848Z,73.00
